Time;durP1;ratioP1;P1;durP2;ratioP2;P2;SDS_P1;SDS_P2;PMS_P1;PMS_P2;Temp;Humidity;BMP_temperature;BMP_pressure;BME280_temperature;BME280_humidity;BME280_pressure;Samples;Min_cycle;Max_cycle;Signal;HPM_P1;HPM_P2
2022/11/08 00:01:31;;;;;;;14.18;8.20;;;5.50;99.90;;;;;;6244951;23;20368;-84
2022/11/08 00:04:19;;;;;;;12.98;7.60;;;5.40;99.90;;;;;;6245797;23;20108;-83
2022/11/08 00:16:25;;;;;;;17.20;8.80;;;5.10;99.90;;;;;;6245297;23;20051;-83
2022/11/08 00:19:12;;;;;;;13.93;8.55;;;4.90;99.90;;;;;;6245502;23;20078;-83
2022/11/08 00:21:59;;;;;;;14.27;8.50;;;4.90;99.90;;;;;;6245522;23;20028;-83
2022/11/08 00:24:47;;;;;;;14.05;8.63;;;4.80;99.90;;;;;;6245592;23;20034;-83
2022/11/08 00:27:34;;;;;;;14.63;9.13;;;4.70;99.90;;;;;;6245864;23;20424;-83
2022/11/08 00:30:21;;;;;;;16.95;9.43;;;4.50;99.90;;;;;;6246382;23;20046;-83
2022/11/08 00:33:08;;;;;;;14.70;9.10;;;4.50;99.90;;;;;;6245812;23;20106;-82
2022/11/08 00:35:59;;;;;;;17.10;10.32;;;4.50;99.90;;;;;;6245365;23;20349;-83
2022/11/08 00:38:46;;;;;;;14.95;9.80;;;4.50;99.90;;;;;;6245133;23;20020;-83
2022/11/08 00:41:33;;;;;;;16.25;10.40;;;4.40;99.90;;;;;;6245258;23;20020;-83
2022/11/08 00:44:21;;;;;;;20.60;11.55;;;4.30;99.90;;;;;;6245476;23;20036;-83
2022/11/08 00:47:10;;;;;;;21.25;12.95;;;4.40;99.90;;;;;;6248635;22;20028;-83
2022/11/08 00:50:00;;;;;;;21.95;12.07;;;4.40;99.90;;;;;;6246330;23;20126;-83
2022/11/08 00:52:47;;;;;;;23.88;12.25;;;4.40;99.90;;;;;;6245205;23;20076;-85
2022/11/08 00:55:37;;;;;;;21.67;12.90;;;4.30;99.90;;;;;;6246982;23;20066;-84
2022/11/08 00:58:24;;;;;;;22.02;12.35;;;4.30;99.90;;;;;;6246265;23;20024;-85
2022/11/08 01:01:18;;;;;;;20.90;12.15;;;4.30;99.90;;;;;;6246302;23;20020;-84
2022/11/08 01:04:06;;;;;;;18.07;10.53;;;4.20;99.90;;;;;;6246612;23;20043;-83
2022/11/08 01:06:53;;;;;;;26.80;14.07;;;4.20;99.90;;;;;;6248805;22;20113;-86
2022/11/08 01:09:40;;;;;;;20.10;12.82;;;4.30;99.90;;;;;;6250071;23;20079;-84
2022/11/08 01:12:27;;;;;;;27.08;14.50;;;4.20;99.90;;;;;;6250654;22;20028;-84
2022/11/08 01:15:14;;;;;;;26.92;14.75;;;4.20;99.90;;;;;;6246734;23;20075;-84
2022/11/08 01:18:07;;;;;;;29.15;15.57;;;4.20;99.90;;;;;;6246265;23;20020;-84
2022/11/08 01:20:54;;;;;;;;;;;4.10;99.90;;;;;;6247002;23;20024;-84
2022/11/08 01:23:45;;;;;;;25.38;15.40;;;4.20;99.90;;;;;;6247413;22;19982;-84
2022/11/08 01:26:32;;;;;;;27.67;15.20;;;4.30;99.90;;;;;;6244484;23;20055;-84
2022/11/08 01:29:19;;;;;;;28.02;15.75;;;4.30;99.90;;;;;;6243141;23;20024;-84
2022/11/08 01:32:11;;;;;;;25.35;14.27;;;4.30;99.90;;;;;;6246226;23;20103;-83
2022/11/08 01:35:00;;;;;;;25.42;14.65;;;4.10;99.90;;;;;;6247072;22;20039;-83
2022/11/08 01:37:47;;;;;;;24.52;14.65;;;4.00;99.90;;;;;;6244070;23;20028;-81
2022/11/08 01:40:46;;;;;;;30.20;16.00;;;4.00;99.90;;;;;;6245648;23;20052;-83
2022/11/08 01:43:40;;;;;;;26.00;14.80;;;4.00;99.90;;;;;;6244232;23;20107;-83
2022/11/08 01:46:35;;;;;;;23.77;15.25;;;3.90;99.90;;;;;;6245845;23;20027;-84
2022/11/08 01:49:25;;;;;;;26.15;14.75;;;3.90;99.90;;;;;;6245685;23;20455;-83
2022/11/08 01:52:20;;;;;;;31.42;15.02;;;3.90;99.90;;;;;;6246673;22;20038;-83
2022/11/08 01:55:24;;;;;;;21.85;14.30;;;4.00;99.90;;;;;;6244198;23;20094;-84
2022/11/08 01:58:21;;;;;;;23.40;14.75;;;4.00;99.90;;;;;;6244897;23;20036;-83
2022/11/08 02:01:10;;;;;;;24.92;16.08;;;3.90;99.90;;;;;;6249652;22;20024;-83
2022/11/08 02:03:58;;;;;;;33.13;16.55;;;4.00;99.90;;;;;;6244974;23;20066;-83
2022/11/08 02:06:47;;;;;;;29.83;16.08;;;4.10;99.90;;;;;;6247994;23;20038;-83
2022/11/08 02:09:36;;;;;;;30.38;15.55;;;4.10;99.90;;;;;;6246514;23;20103;-83
2022/11/08 02:12:25;;;;;;;28.52;16.33;;;4.10;99.90;;;;;;6247884;23;20091;-83
2022/11/08 02:15:17;;;;;;;26.20;15.00;;;4.10;99.90;;;;;;6247565;23;20055;-83
2022/11/08 02:18:09;;;;;;;24.55;15.52;;;4.20;99.90;;;;;;6248641;22;20024;-83
2022/11/08 02:20:56;;;;;;;23.02;15.45;;;4.10;99.90;;;;;;6245238;23;20158;-83
2022/11/08 02:23:55;;;;;;;26.58;15.73;;;4.00;99.90;;;;;;6248689;22;20285;-83
2022/11/08 02:26:46;;;;;;;24.02;14.27;;;3.90;99.90;;;;;;6245378;23;20143;-84
2022/11/08 02:29:37;;;;;;;22.33;13.18;;;3.80;99.90;;;;;;6249587;22;20103;-83
2022/11/08 02:32:24;;;;;;;22.92;12.90;;;3.80;99.90;;;;;;6247743;23;20099;-83
2022/11/08 02:35:15;;;;;;;22.75;13.48;;;3.80;99.90;;;;;;6247335;23;20024;-84
2022/11/08 02:38:05;;;;;;;20.35;13.80;;;3.80;99.90;;;;;;6248461;22;20115;-83
2022/11/08 02:40:54;;;;;;;23.70;13.52;;;3.70;99.90;;;;;;6247161;23;20024;-84
2022/11/08 02:43:46;;;;;;;24.20;12.93;;;3.70;99.90;;;;;;6249285;22;20020;-83
2022/11/08 02:46:34;;;;;;;21.48;11.45;;;3.70;99.90;;;;;;6246869;23;20102;-84
2022/11/08 02:49:21;;;;;;;32.42;14.38;;;3.90;99.90;;;;;;6247043;23;20032;-84
2022/11/08 02:52:09;;;;;;;24.60;14.27;;;3.80;99.90;;;;;;6244561;23;20023;-84
2022/11/08 02:54:56;;;;;;;26.98;14.85;;;3.80;99.90;;;;;;6247098;23;20182;-83
2022/11/08 02:57:43;;;;;;;30.25;15.82;;;3.70;99.90;;;;;;6247965;22;20103;-83
2022/11/08 03:00:31;;;;;;;28.38;15.35;;;3.70;99.90;;;;;;6246759;23;20044;-83
2022/11/08 03:03:18;;;;;;;30.38;17.63;;;3.60;99.90;;;;;;6247142;23;20427;-84
2022/11/08 03:06:05;;;;;;;20.50;13.45;;;3.60;99.90;;;;;;6248179;22;20400;-84
2022/11/08 03:08:54;;;;;;;30.10;15.45;;;3.60;99.90;;;;;;6245152;23;20104;-84
2022/11/08 03:11:41;;;;;;;34.53;16.20;;;3.60;99.90;;;;;;6247059;23;20058;-83
2022/11/08 03:14:28;;;;;;;28.80;15.02;;;3.50;99.90;;;;;;6245264;23;20056;-83
2022/11/08 03:17:16;;;;;;;27.60;14.82;;;3.50;99.90;;;;;;6247317;22;20376;-84
2022/11/08 03:20:03;;;;;;;29.05;16.88;;;3.50;99.90;;;;;;6247023;23;20028;-84
2022/11/08 03:22:58;;;;;;;29.00;16.60;;;3.50;99.90;;;;;;6247409;22;20082;-83
2022/11/08 03:25:45;;;;;;;28.60;17.45;;;3.50;99.90;;;;;;6247145;23;20076;-84
2022/11/08 03:28:32;;;;;;;34.30;16.98;;;3.50;99.90;;;;;;6247433;23;20038;-83
2022/11/08 03:31:20;;;;;;;30.50;16.88;;;3.40;99.90;;;;;;6250191;22;20099;-84
2022/11/08 03:34:11;;;;;;;31.75;16.90;;;3.40;99.90;;;;;;6247962;23;20052;-85
2022/11/08 03:36:58;;;;;;;29.23;17.27;;;3.40;99.90;;;;;;6251333;22;20028;-83
2022/11/08 03:39:55;;;;;;;34.75;15.55;;;3.40;99.90;;;;;;6249311;23;20020;-84
2022/11/08 03:42:43;;;;;;;32.28;17.13;;;3.40;99.90;;;;;;6250434;22;20032;-84
2022/11/08 03:45:32;;;;;;;36.25;17.77;;;3.40;99.90;;;;;;6227364;23;20024;-83
2022/11/08 03:48:22;;;;;;;41.92;19.92;;;3.50;99.90;;;;;;6249316;23;20024;-84
2022/11/08 03:51:09;;;;;;;36.97;19.83;;;3.90;99.90;;;;;;6253186;23;20056;-84
2022/11/08 03:53:56;;;;;;;37.65;20.23;;;4.10;99.90;;;;;;6252842;22;20039;-84
2022/11/08 03:56:43;;;;;;;35.70;20.45;;;4.30;99.90;;;;;;6250509;23;20079;-84
2022/11/08 03:59:30;;;;;;;39.13;19.75;;;4.40;99.90;;;;;;6253303;22;20139;-83
2022/11/08 04:02:17;;;;;;;34.20;19.70;;;4.50;99.90;;;;;;6250758;23;20095;-82
2022/11/08 04:05:06;;;;;;;37.25;18.48;;;4.50;99.90;;;;;;6247620;23;20024;-83
2022/11/08 04:07:54;;;;;;;31.23;18.35;;;4.60;99.90;;;;;;6250345;22;20098;-82
2022/11/08 04:10:41;;;;;;;35.05;18.38;;;4.60;99.90;;;;;;6247539;23;20038;-84
2022/11/08 04:16:34;;;;;;;33.20;16.52;;;4.30;99.90;;;;;;6248677;23;20344;-84
2022/11/08 04:22:27;;;;;;;30.50;18.55;;;4.20;99.90;;;;;;6247111;23;20024;-85
2022/11/08 04:25:16;;;;;;;36.20;19.35;;;4.30;99.90;;;;;;6247001;23;20095;-84
2022/11/08 04:28:06;;;;;;;35.38;17.90;;;4.40;99.90;;;;;;6247606;22;20150;-84
2022/11/08 04:31:01;;;;;;;28.83;16.63;;;4.40;99.90;;;;;;6246638;23;20415;-84
2022/11/08 04:33:48;;;;;;;30.33;17.13;;;4.30;99.90;;;;;;6244641;23;20127;-84
2022/11/08 04:36:35;;;;;;;33.70;17.17;;;4.20;99.90;;;;;;6247481;22;20039;-84
2022/11/08 04:39:22;;;;;;;25.58;15.93;;;4.30;99.90;;;;;;6246076;22;20024;-84
2022/11/08 04:42:09;;;;;;;33.05;18.17;;;4.30;99.90;;;;;;6246197;23;20016;-84
2022/11/08 04:44:56;;;;;;;28.05;16.58;;;4.40;99.90;;;;;;6246387;23;20099;-84
2022/11/08 04:47:47;;;;;;;30.58;17.52;;;4.40;99.90;;;;;;6246329;23;20105;-83
2022/11/08 04:50:35;;;;;;;35.90;16.33;;;4.40;99.90;;;;;;6246294;23;20028;-83
2022/11/08 04:53:22;;;;;;;30.95;16.52;;;4.40;99.90;;;;;;6246596;23;20323;-83
2022/11/08 04:56:15;;;;;;;33.38;17.42;;;4.50;99.90;;;;;;6247207;22;20064;-83
2022/11/08 04:59:02;;;;;;;41.65;19.27;;;4.60;99.90;;;;;;6245319;23;20070;-84
2022/11/08 05:01:55;;;;;;;;;;;4.60;99.90;;;;;;6246463;23;20307;-84
2022/11/08 05:04:44;;;;;;;26.20;16.38;;;4.50;99.90;;;;;;6244969;23;19915;-83
2022/11/08 05:07:31;;;;;;;32.28;15.82;;;4.50;99.90;;;;;;6244927;23;20389;-84
2022/11/08 05:10:21;;;;;;;31.92;16.60;;;4.40;99.90;;;;;;6246621;22;20137;-84
2022/11/08 05:13:10;;;;;;;23.40;15.38;;;4.40;99.90;;;;;;6243312;23;20028;-84
2022/11/08 05:16:11;;;;;;;23.13;15.15;;;4.20;99.90;;;;;;6245901;23;20103;-84
2022/11/08 05:18:59;;;;;;;26.38;14.25;;;4.10;99.90;;;;;;6248284;22;20365;-84
2022/11/08 05:24:52;;;;;;;28.27;14.77;;;4.00;99.90;;;;;;6246802;23;20110;-81
2022/11/08 05:27:39;;;;;;;27.38;14.02;;;4.10;99.90;;;;;;6246059;23;20068;-82
2022/11/08 05:30:28;;;;;;;23.52;14.18;;;3.90;99.90;;;;;;6246041;23;20024;-83
2022/11/08 05:33:15;;;;;;;27.35;15.23;;;3.90;99.90;;;;;;6245916;23;20115;-82
2022/11/08 05:36:10;;;;;;;27.35;14.82;;;3.90;99.90;;;;;;6243972;23;20186;-83
2022/11/08 05:38:59;;;;;;;25.15;13.55;;;3.80;99.90;;;;;;6244725;23;20102;-83
2022/11/08 05:41:49;;;;;;;23.23;13.10;;;3.70;99.90;;;;;;6245121;23;20025;-83
2022/11/08 05:44:38;;;;;;;29.48;13.18;;;3.70;99.90;;;;;;6249507;22;20056;-84
2022/11/08 05:47:25;;;;;;;24.70;14.63;;;3.70;99.90;;;;;;6248385;22;20091;-83
2022/11/08 05:50:13;;;;;;;42.47;21.33;;;3.80;99.90;;;;;;6246692;23;20048;-83
2022/11/08 05:53:07;;;;;;;36.25;18.15;;;3.90;99.90;;;;;;6247730;23;20036;-84
2022/11/08 05:56:07;;;;;;;33.70;18.92;;;3.80;99.90;;;;;;6246414;23;20031;-85
2022/11/08 05:58:55;;;;;;;25.95;14.32;;;3.70;99.90;;;;;;6245318;23;20024;-84
2022/11/08 06:01:44;;;;;;;26.13;15.10;;;3.90;99.90;;;;;;6248451;23;20086;-83
2022/11/08 06:04:32;;;;;;;23.52;13.77;;;4.10;99.90;;;;;;6247151;23;20297;-84
2022/11/08 06:07:21;;;;;;;25.95;15.82;;;4.30;99.90;;;;;;6247646;23;20082;-84
2022/11/08 06:10:09;;;;;;;28.33;16.00;;;4.50;99.90;;;;;;6248221;22;20028;-84
2022/11/08 06:13:02;;;;;;;22.83;13.85;;;4.70;99.90;;;;;;6247873;23;20087;-83
2022/11/08 06:15:49;;;;;;;28.17;13.23;;;4.90;99.90;;;;;;6246474;23;20486;-87
2022/11/08 06:18:37;;;;;;;26.60;14.35;;;5.10;99.90;;;;;;6245190;23;20044;-86
2022/11/08 06:21:27;;;;;;;19.35;12.95;;;5.10;99.90;;;;;;6248228;22;20024;-86
2022/11/08 06:24:18;;;;;;;23.55;12.43;;;5.10;99.90;;;;;;6247558;23;20388;-84
2022/11/08 06:27:06;;;;;;;21.33;12.85;;;5.10;99.90;;;;;;6244386;22;20099;-86
2022/11/08 06:29:53;;;;;;;19.90;12.77;;;5.20;99.90;;;;;;6243383;23;20024;-85
2022/11/08 06:32:42;;;;;;;19.48;11.68;;;5.20;99.90;;;;;;6246924;23;20055;-85
2022/11/08 06:35:29;;;;;;;24.13;11.88;;;5.20;99.90;;;;;;6246886;23;20028;-83
2022/11/08 06:38:19;;;;;;;28.13;13.23;;;5.30;99.90;;;;;;6246402;23;20095;-86
2022/11/08 06:41:06;;;;;;;24.05;12.20;;;5.40;99.90;;;;;;6247726;22;20035;-84
2022/11/08 06:43:56;;;;;;;24.75;12.80;;;5.40;99.90;;;;;;6248631;22;20039;-84
2022/11/08 06:46:44;;;;;;;23.27;10.80;;;5.50;99.90;;;;;;6245013;23;20020;-83
2022/11/08 06:49:32;;;;;;;20.90;11.70;;;5.60;99.90;;;;;;6245198;23;20028;-82
2022/11/08 06:52:20;;;;;;;19.55;11.57;;;5.70;99.90;;;;;;6224401;23;20032;-83
2022/11/08 06:55:09;;;;;;;24.77;13.68;;;5.70;99.90;;;;;;6244524;23;20331;-83
2022/11/08 06:57:56;;;;;;;21.65;14.25;;;5.70;99.90;;;;;;6245926;23;20027;-83
2022/11/08 07:00:43;;;;;;;29.33;14.90;;;5.60;99.90;;;;;;6247589;23;20031;-83
2022/11/08 07:03:34;;;;;;;22.48;14.77;;;5.70;99.90;;;;;;6248885;22;20047;-83
2022/11/08 07:06:22;;;;;;;21.38;13.50;;;5.90;99.90;;;;;;6245920;23;20031;-85
2022/11/08 07:09:09;;;;;;;19.20;10.82;;;6.20;99.90;;;;;;6247903;22;20032;-84
2022/11/08 07:11:57;;;;;;;15.10;10.98;;;6.40;99.90;;;;;;6249229;22;20041;-84
2022/11/08 07:14:46;;;;;;;13.40;8.73;;;6.60;99.90;;;;;;6246999;22;20400;-84
2022/11/08 07:17:33;;;;;;;13.73;7.80;;;6.70;99.90;;;;;;6244032;23;20103;-82
2022/11/08 07:20:24;;;;;;;16.90;8.20;;;6.90;99.90;;;;;;6245158;23;20020;-83
2022/11/08 07:23:12;;;;;;;10.40;6.25;;;6.90;99.90;;;;;;6244488;23;20055;-82
2022/11/08 07:26:04;;;;;;;12.18;5.40;;;6.90;99.90;;;;;;6244116;23;20131;-81
2022/11/08 07:28:51;;;;;;;8.60;5.30;;;7.00;99.90;;;;;;6245144;23;20032;-82
2022/11/08 07:31:38;;;;;;;9.38;5.28;;;7.00;99.90;;;;;;6245359;23;20028;-83
2022/11/08 07:34:25;;;;;;;6.28;4.93;;;7.00;99.90;;;;;;6244887;23;20028;-82
2022/11/08 07:37:13;;;;;;;13.27;5.63;;;6.90;99.90;;;;;;6245311;23;20047;-83
2022/11/08 07:40:03;;;;;;;9.52;5.57;;;6.90;99.90;;;;;;6245789;23;20028;-84
2022/11/08 07:42:51;;;;;;;9.00;5.47;;;6.90;99.90;;;;;;6244589;23;20078;-84
2022/11/08 07:46:00;;;;;;;11.40;5.75;;;6.70;99.90;;;;;;6245378;23;20103;-83
2022/11/08 07:48:49;;;;;;;8.95;5.47;;;6.70;99.90;;;;;;6243801;23;20082;-83
2022/11/08 07:51:37;;;;;;;10.13;5.90;;;6.80;99.90;;;;;;6246271;23;20082;-83
2022/11/08 07:54:24;;;;;;;16.83;7.93;;;6.90;99.90;;;;;;6245539;23;20028;-83
2022/11/08 07:57:14;;;;;;;10.95;6.07;;;7.10;99.90;;;;;;6246714;23;20024;-83
2022/11/08 08:00:04;;;;;;;13.65;6.57;;;6.70;99.90;;;;;;6244168;23;20024;-83
2022/11/08 08:02:59;;;;;;;12.65;7.90;;;6.70;99.90;;;;;;6244089;23;20020;-83
2022/11/08 08:05:52;;;;;;;11.18;7.30;;;6.80;99.90;;;;;;6244514;23;20115;-82
2022/11/08 08:08:47;;;;;;;14.70;7.70;;;7.00;99.90;;;;;;6245086;23;20024;-83
2022/11/08 08:11:35;;;;;;;13.43;7.20;;;7.50;96.60;;;;;;6243473;23;20037;-83
2022/11/08 08:14:22;;;;;;;10.57;4.50;;;8.20;1.00;;;;;;6223870;23;20154;-83
2022/11/08 08:17:09;;;;;;;7.63;4.20;;;9.20;99.90;;;;;;6244426;23;20486;-85
2022/11/08 08:19:56;;;;;;;5.05;3.03;;;9.80;99.90;;;;;;6245040;23;20039;-82
2022/11/08 08:22:50;;;;;;;4.93;2.72;;;10.10;99.90;;;;;;6245141;23;20581;-82
2022/11/08 08:25:38;;;;;;;5.00;2.63;;;10.30;3.10;;;;;;6245050;23;20026;-84
2022/11/08 08:28:29;;;;;;;4.22;2.60;;;10.70;99.90;;;;;;6242820;23;20064;-84
2022/11/08 08:31:16;;;;;;;4.68;2.25;;;11.20;79.30;;;;;;6244769;23;20024;-84
2022/11/08 08:34:04;;;;;;;6.13;2.05;;;11.60;1.00;;;;;;6245931;23;20024;-83
2022/11/08 08:36:51;;;;;;;2.75;2.00;;;11.50;1.00;;;;;;6245694;23;20056;-83
2022/11/08 08:39:39;;;;;;;4.72;2.00;;;11.10;99.90;;;;;;6245580;23;20024;-82
2022/11/08 08:42:28;;;;;;;5.13;2.13;;;10.90;99.90;;;;;;6246406;23;20091;-89
2022/11/08 08:45:15;;;;;;;3.42;1.95;;;11.10;99.90;;;;;;6245636;23;20024;-86
2022/11/08 08:48:08;;;;;;;6.20;2.78;;;11.60;99.90;;;;;;6245453;23;20035;-85
2022/11/08 08:50:56;;;;;;;7.63;2.20;;;12.00;99.90;;;;;;6243755;23;20020;-84
2022/11/08 08:53:52;;;;;;;3.80;2.08;;;12.00;99.90;;;;;;6245675;23;20034;-85
2022/11/08 08:56:41;;;;;;;2.13;1.80;;;11.90;99.90;;;;;;6245250;23;20096;-82
2022/11/08 08:59:29;;;;;;;7.40;2.00;;;11.70;99.90;;;;;;6245682;23;20024;-84
2022/11/08 09:02:36;;;;;;;2.78;1.85;;;11.70;99.90;;;;;;6244865;23;20020;-83
2022/11/08 09:05:29;;;;;;;3.17;2.03;;;11.70;99.90;;;;;;6250367;23;20031;-84
2022/11/08 09:08:16;;;;;;;4.93;1.60;;;11.80;99.90;;;;;;6250424;23;20024;-82
2022/11/08 09:11:11;;;;;;;5.35;1.95;;;11.80;99.90;;;;;;6249005;23;20035;-83
2022/11/08 09:14:00;;;;;;;4.93;2.35;;;12.00;99.90;;;;;;6247490;23;20027;-85
2022/11/08 09:16:48;;;;;;;3.13;1.90;;;12.20;99.90;;;;;;6246367;23;20035;-85
2022/11/08 09:19:38;;;;;;;4.50;2.55;;;12.10;99.90;;;;;;6247090;23;20051;-86
2022/11/08 09:22:25;;;;;;;2.40;1.83;;;12.00;99.90;;;;;;6246907;23;20034;-85
2022/11/08 09:25:12;;;;;;;3.22;2.03;;;12.00;99.90;;;;;;6246589;23;20324;-82
2022/11/08 09:27:59;;;;;;;3.10;2.05;;;12.10;99.90;;;;;;6248349;23;20051;-83
2022/11/08 09:30:51;;;;;;;3.72;1.42;;;12.20;99.90;;;;;;6247548;23;20023;-83
2022/11/08 09:33:39;;;;;;;4.75;1.80;;;12.50;99.90;;;;;;6246847;23;20028;-84
2022/11/08 09:36:27;;;;;;;2.97;1.98;;;12.50;99.90;;;;;;6246786;23;20458;-85
2022/11/08 09:39:15;;;;;;;3.85;1.92;;;12.40;99.90;;;;;;6248142;23;20025;-83
2022/11/08 09:42:18;;;;;;;2.25;1.73;;;12.60;99.90;;;;;;6245290;23;20050;-83
2022/11/08 09:45:25;;;;;;;2.50;1.70;;;12.80;99.90;;;;;;6248201;22;20032;-85
2022/11/08 09:48:33;;;;;;;4.30;1.83;;;14.30;99.90;;;;;;6248550;23;20024;-84
2022/11/08 09:51:24;;;;;;;2.72;1.33;;;15.40;99.90;;;;;;6246305;23;20032;-84
2022/11/08 09:54:25;;;;;;;4.78;1.70;;;15.90;99.90;;;;;;6245869;23;20024;-84
2022/11/08 09:57:23;;;;;;;4.15;1.70;;;14.90;99.90;;;;;;6246309;23;20028;-85
2022/11/08 10:00:12;;;;;;;7.40;1.90;;;13.90;99.90;;;;;;6245887;23;20150;-82
2022/11/08 10:03:02;;;;;;;4.95;1.80;;;13.70;99.90;;;;;;6246168;23;20023;-84
2022/11/08 10:06:15;;;;;;;3.42;1.95;;;13.30;99.90;;;;;;6243737;23;20036;-82
2022/11/08 10:09:11;;;;;;;3.55;2.47;;;13.40;99.90;;;;;;6209131;23;20032;-84
2022/11/08 10:12:37;;;;;;;1.70;1.60;;;13.40;99.90;;;;;;6247305;23;20039;-84
2022/11/08 10:15:33;;;;;;;4.28;1.90;;;13.30;99.90;;;;;;6246709;23;20300;-84
2022/11/08 10:18:39;;;;;;;2.97;1.80;;;13.50;99.90;;;;;;6248324;22;20039;-83
2022/11/08 10:21:52;;;;;;;3.35;1.67;;;13.50;99.90;;;;;;6246874;22;20027;-83
2022/11/08 10:25:05;;;;;;;3.28;1.75;;;13.50;99.90;;;;;;6245901;23;20124;-82
2022/11/08 10:27:58;;;;;;;4.25;1.70;;;13.30;99.90;;;;;;6246034;23;20030;-83
2022/11/08 10:30:49;;;;;;;2.72;1.58;;;13.20;99.90;;;;;;6222777;23;20020;-83
2022/11/08 10:33:44;;;;;;;6.40;1.75;;;13.30;99.90;;;;;;6245863;23;20035;-81
2022/11/08 10:36:44;;;;;;;4.22;1.50;;;13.40;99.90;;;;;;6244270;23;20038;-83
2022/11/08 10:39:42;;;;;;;4.50;1.85;;;13.50;99.90;;;;;;6246599;22;20024;-83
2022/11/08 10:42:38;;;;;;;3.72;1.75;;;13.60;99.90;;;;;;6245497;23;20368;-82
2022/11/08 10:45:26;;;;;;;2.30;1.63;;;13.80;99.90;;;;;;6246301;23;20035;-83
2022/11/08 10:48:13;;;;;;;4.90;1.58;;;14.10;99.90;;;;;;6245969;23;20024;-83
2022/11/08 10:51:03;;;;;;;2.95;1.77;;;15.30;99.90;;;;;;6244834;23;20040;-83
2022/11/08 10:53:53;;;;;;;4.93;1.80;;;16.00;99.90;;;;;;6245097;23;20066;-83
2022/11/08 10:56:59;;;;;;;3.45;1.60;;;17.20;99.90;;;;;;6247770;22;20103;-83
2022/11/08 10:59:46;;;;;;;4.53;1.77;;;18.90;99.90;;;;;;6245380;23;20020;-82
2022/11/08 11:02:34;;;;;;;6.22;1.83;;;18.50;91.30;;;;;;6245766;22;20158;-83
2022/11/08 11:05:27;;;;;;;3.45;1.95;;;17.70;85.60;;;;;;6245727;23;20106;-82
2022/11/08 11:08:17;;;;;;;4.07;2.08;;;17.00;85.50;;;;;;6245013;23;20032;-81
2022/11/08 11:11:30;;;;;;;2.40;1.70;;;16.20;83.10;;;;;;6245480;23;20344;-83
2022/11/08 11:14:22;;;;;;;4.00;1.75;;;15.80;90.00;;;;;;6246147;23;20028;-82
2022/11/08 11:17:23;;;;;;;6.35;1.85;;;15.80;92.80;;;;;;6245503;23;20028;-81
2022/11/08 11:20:21;;;;;;;8.05;1.80;;;15.80;93.30;;;;;;6243414;23;20028;-82
2022/11/08 11:23:10;;;;;;;2.63;1.60;;;16.20;92.10;;;;;;6244370;23;20105;-82
2022/11/08 11:25:58;;;;;;;2.67;1.30;;;17.30;90.30;;;;;;6246903;22;20356;-82
2022/11/08 11:29:03;;;;;;;2.95;1.10;;;19.20;78.30;;;;;;6244641;23;20592;-87
2022/11/08 11:31:53;;;;;;;4.63;1.33;;;20.40;50.50;;;;;;6247198;22;20028;-84
2022/11/08 11:34:55;;;;;;;1.20;1.10;;;20.50;46.70;;;;;;6246203;23;20414;-86
2022/11/08 11:37:44;;;;;;;1.95;1.30;;;21.40;37.50;;;;;;6242357;23;20043;-82
2022/11/08 11:40:44;;;;;;;4.45;1.25;;;21.60;29.50;;;;;;6242779;23;20073;-83
2022/11/08 11:43:54;;;;;;;6.70;1.30;;;22.20;22.30;;;;;;6244887;23;20028;-83
2022/11/08 11:47:03;;;;;;;4.05;1.60;;;21.50;13.70;;;;;;6244563;23;20024;-83
2022/11/08 11:49:53;;;;;;;3.42;1.80;;;21.90;14.30;;;;;;6243987;23;20031;-82
2022/11/08 11:52:40;;;;;;;3.13;1.50;;;21.80;5.60;;;;;;6245846;23;20401;-82
2022/11/08 11:55:35;;;;;;;4.10;1.15;;;21.10;1.20;;;;;;6245172;23;20032;-83
2022/11/08 11:58:41;;;;;;;2.60;1.10;;;20.70;1.00;;;;;;6244912;23;20400;-81
2022/11/08 12:02:05;;;;;;;2.00;1.17;;;21.20;1.00;;;;;;6247017;22;20024;-82
2022/11/08 12:05:04;;;;;;;2.45;1.20;;;21.40;1.00;;;;;;6245432;23;20048;-85
2022/11/08 12:08:01;;;;;;;2.08;1.10;;;21.80;1.00;;;;;;6246929;22;20031;-84
2022/11/08 12:11:08;;;;;;;2.80;1.23;;;22.10;1.00;;;;;;6244641;23;20419;-82
2022/11/08 12:14:21;;;;;;;3.25;1.08;;;20.90;1.00;;;;;;6245037;22;20035;-83
2022/11/08 12:17:33;;;;;;;2.40;1.10;;;20.00;1.00;;;;;;6246183;23;20432;-84
2022/11/08 12:20:52;;;;;;;2.78;1.00;;;20.70;1.00;;;;;;6245099;23;20020;-85
2022/11/08 12:24:16;;;;;;;1.58;1.20;;;20.40;1.00;;;;;;6246109;23;20028;-83
2022/11/08 12:27:43;;;;;;;2.50;1.10;;;20.80;1.00;;;;;;6244929;23;20024;-86
2022/11/08 12:31:04;;;;;;;1.60;1.00;;;21.00;1.00;;;;;;6246510;22;20107;-84
2022/11/08 12:34:21;;;;;;;1.67;1.00;;;21.20;1.00;;;;;;6243083;23;20024;-83
2022/11/08 12:37:37;;;;;;;2.58;1.08;;;20.50;1.00;;;;;;6245144;23;20028;-84
2022/11/08 12:40:53;;;;;;;1.70;1.10;;;20.80;1.00;;;;;;6245745;23;20024;-84
2022/11/08 12:44:16;;;;;;;2.92;1.10;;;20.10;1.00;;;;;;6244098;23;20491;-83
2022/11/08 12:47:44;;;;;;;5.38;1.50;;;18.70;1.00;;;;;;6214260;22;20024;-84
2022/11/08 12:50:50;;;;;;;1.73;1.35;;;18.20;1.00;;;;;;6236392;23;20028;-83
2022/11/08 12:53:37;;;;;;;3.67;1.40;;;18.60;1.00;;;;;;6246448;23;20282;-85
2022/11/08 12:56:38;;;;;;;2.08;1.30;;;18.40;1.00;;;;;;6247424;22;20086;-83
2022/11/08 12:59:31;;;;;;;2.42;1.25;;;19.40;1.00;;;;;;6244323;23;20059;-86
2022/11/08 13:02:29;;;;;;;3.25;1.45;;;19.80;1.00;;;;;;6245757;23;20479;-83
2022/11/08 13:05:34;;;;;;;5.32;1.38;;;20.20;1.00;;;;;;6244419;23;20024;-84
2022/11/08 13:08:30;;;;;;;3.95;1.35;;;20.80;1.00;;;;;;6249189;23;20051;-84
2022/11/08 13:11:26;;;;;;;2.97;1.20;;;21.00;1.00;;;;;;6249880;23;20039;-83
2022/11/08 13:14:17;;;;;;;3.10;1.10;;;21.10;1.00;;;;;;6246950;23;20086;-83
2022/11/08 13:17:11;;;;;;;4.18;1.38;;;20.10;1.00;;;;;;6245811;23;20032;-82
2022/11/08 13:20:26;;;;;;;2.80;1.02;;;19.10;1.00;;;;;;6246895;23;20483;-83
2022/11/08 13:23:31;;;;;;;2.55;1.10;;;17.90;1.00;;;;;;6244782;23;20035;-84
2022/11/08 13:26:26;;;;;;;5.90;1.58;;;17.30;1.00;;;;;;6245587;23;20091;-83
2022/11/08 13:29:16;;;;;;;2.63;1.27;;;17.00;1.00;;;;;;6245270;22;20127;-84
2022/11/08 13:32:14;;;;;;;4.50;1.40;;;16.80;1.00;;;;;;6246145;22;20024;-84
2022/11/08 13:35:10;;;;;;;3.72;1.30;;;16.70;1.00;;;;;;6243979;23;20042;-84
2022/11/08 13:38:27;;;;;;;1.90;1.13;;;16.70;1.00;;;;;;6245852;23;20028;-84
2022/11/08 13:41:20;;;;;;;3.42;1.20;;;16.70;1.00;;;;;;6238469;22;20420;-83
2022/11/08 13:44:46;;;;;;;3.30;1.42;;;16.40;1.00;;;;;;6243583;23;20043;-82
2022/11/08 13:47:38;;;;;;;3.85;1.20;;;16.20;1.00;;;;;;6243387;23;20020;-84
2022/11/08 13:50:30;;;;;;;1.42;1.17;;;16.00;1.00;;;;;;6244485;23;20035;-81
2022/11/08 13:53:18;;;;;;;4.07;1.35;;;15.90;1.00;;;;;;6244075;23;20082;-81
2022/11/08 13:56:05;;;;;;;2.08;1.10;;;15.90;1.00;;;;;;6244058;23;20416;-83
2022/11/08 13:58:55;;;;;;;4.15;1.35;;;15.80;1.00;;;;;;6242760;23;20055;-81
2022/11/08 14:01:45;;;;;;;4.15;1.35;;;15.80;1.00;;;;;;6245581;23;20048;-82
2022/11/08 14:04:37;;;;;;;7.50;1.50;;;15.70;1.00;;;;;;6246068;23;20024;-81
2022/11/08 14:07:52;;;;;;;2.47;1.67;;;15.70;1.00;;;;;;6248411;22;20099;-82
2022/11/08 14:11:16;;;;;;;3.15;1.40;;;15.70;1.00;;;;;;6248175;22;20046;-83
2022/11/08 14:14:22;;;;;;;3.88;1.20;;;15.80;1.00;;;;;;6244470;23;20034;-81
2022/11/08 14:17:29;;;;;;;4.35;1.45;;;16.20;1.00;;;;;;6244880;23;20062;-80
2022/11/08 14:20:27;;;;;;;5.53;1.27;;;17.30;1.00;;;;;;6247782;22;20020;-82
2022/11/08 14:23:17;;;;;;;5.97;1.45;;;17.70;1.00;;;;;;6245916;23;20028;-82
2022/11/08 14:26:21;;;;;;;2.92;1.30;;;17.50;1.00;;;;;;6247224;23;20035;-80
2022/11/08 14:29:22;;;;;;;4.20;1.45;;;17.10;1.00;;;;;;6244605;23;20024;-83
2022/11/08 14:32:21;;;;;;;4.03;1.23;;;16.70;1.00;;;;;;6247054;23;20105;-83
2022/11/08 14:35:25;;;;;;;3.40;1.30;;;16.50;1.00;;;;;;6227931;23;20039;-81
2022/11/08 14:38:16;;;;;;;2.38;1.23;;;16.30;1.00;;;;;;6244099;23;20032;-82
2022/11/08 14:41:13;;;;;;;3.50;1.13;;;16.20;1.00;;;;;;6245027;23;20427;-81
2022/11/08 14:44:03;;;;;;;3.20;1.25;;;16.10;1.00;;;;;;6245194;23;20024;-81
2022/11/08 14:46:52;;;;;;;5.80;1.88;;;15.90;1.00;;;;;;6245130;23;20297;-83
2022/11/08 14:49:46;;;;;;;4.85;1.75;;;15.80;1.00;;;;;;6244127;23;20454;-81
2022/11/08 14:52:34;;;;;;;8.10;2.28;;;15.80;1.20;;;;;;6244882;23;20461;-81
2022/11/08 14:55:23;;;;;;;2.78;1.52;;;15.80;4.20;;;;;;6246026;23;20028;-81
2022/11/08 14:58:16;;;;;;;3.42;1.77;;;15.70;4.40;;;;;;6245902;23;20028;-81
2022/11/08 15:01:05;;;;;;;4.43;1.70;;;15.60;3.50;;;;;;6244278;23;20078;-83
2022/11/08 15:04:05;;;;;;;4.57;1.70;;;15.40;4.80;;;;;;6245178;23;20107;-84
2022/11/08 15:06:56;;;;;;;6.13;1.60;;;15.30;8.10;;;;;;6246177;23;20028;-83
2022/11/08 15:09:44;;;;;;;4.95;1.80;;;15.20;10.20;;;;;;6245130;23;20028;-83
2022/11/08 15:12:39;;;;;;;9.82;1.65;;;15.20;10.50;;;;;;6245324;23;20042;-82
2022/11/08 15:15:31;;;;;;;5.30;1.48;;;15.20;12.50;;;;;;6243387;23;20020;-82
2022/11/08 15:18:27;;;;;;;5.97;1.63;;;15.10;15.10;;;;;;6245595;23;20030;-82